Portada
METAR-TAF:

METAR-TAF

Aeroports :

Washington, Indiana, Estats Units d'Amèrica

latitud: 38-42-02N, longitud: 087-07-47W, altitud: 144 m

Observació

L'informe es va fer fa 22 minuts, a les 12:15 UTC
Vent 10 kt del Sud/Sud-Oest amb ràfegues de 19 kt
Temperatura 23°C
Humitat 65%
Pressió 1010 hPa
Visibilitat: 16.1 km
Cel cobert a una alçada de 4800 ft

METAR: KDCY 221215Z AUTO 20010G19KT 10SM OVC048 23/16 A2983 RMK AO2 T02310155

Hora: 08:37 (12:37 UTC)


TAF: manca

Observacions i pronòstics meteorològics de més de 4000 aeroports (METAR i TAF).

Les estacions disponibles són els punts grocs i vermells al mapa.

Posi el ratolí al punt desitjat per veure el nom de l'estació.

Feu clic per veure les observacions i els pronòstics meteorològics.

Per canviar el mapa: feu clic els botons verds amb una creu de color negre per apropar; al botó verd amb un guió per allunyar la imatge; o en les fletxes verdes per a mapes adjacents.


METAR-TAF: